createdAt,value
2016-07-24T00:00:49.988Z,970.39
2016-07-24T00:01:49.992Z,970.43
2016-07-24T00:02:49.992Z,970.4
2016-07-24T00:03:49.996Z,970.38
2016-07-24T00:04:49.996Z,970.4
2016-07-24T00:05:49.996Z,970.38
2016-07-24T00:06:50.002Z,970.39
2016-07-24T00:07:50.001Z,970.38
2016-07-24T00:08:50.001Z,970.38
2016-07-24T00:09:50.004Z,970.38
2016-07-24T00:10:50.004Z,970.4
2016-07-24T00:11:50.005Z,970.4
2016-07-24T00:12:50.009Z,970.4
2016-07-24T00:13:50.008Z,970.41
2016-07-24T00:14:50.009Z,970.42
2016-07-24T00:15:50.012Z,970.39
2016-07-24T00:16:50.013Z,970.41
2016-07-24T00:17:50.016Z,970.38
2016-07-24T00:18:50.016Z,970.4
2016-07-24T00:19:50.017Z,970.38
2016-07-24T00:20:50.020Z,970.4
2016-07-24T00:21:50.022Z,970.44
2016-07-24T00:22:50.020Z,970.43
2016-07-24T00:23:50.024Z,970.44
2016-07-24T00:24:50.025Z,970.44
2016-07-24T00:25:50.025Z,970.47
2016-07-24T00:26:50.029Z,970.5
2016-07-24T00:27:50.029Z,970.48
2016-07-24T00:28:50.033Z,970.45
2016-07-24T00:29:50.033Z,970.49
2016-07-24T00:30:50.033Z,970.5
2016-07-24T00:31:50.037Z,970.54
2016-07-24T00:32:50.038Z,970.52
2016-07-24T00:33:50.037Z,970.54
2016-07-24T00:34:50.041Z,970.51
2016-07-24T00:35:50.041Z,970.51
2016-07-24T00:36:50.041Z,970.51
2016-07-24T00:37:50.046Z,970.5
2016-07-24T00:38:50.046Z,970.5
2016-07-24T00:39:50.049Z,970.48
2016-07-24T00:40:50.050Z,970.49
2016-07-24T00:41:50.050Z,970.49
2016-07-24T00:42:50.059Z,970.46
2016-07-24T00:43:50.401Z,970.47
2016-07-24T00:44:50.053Z,970.43
2016-07-24T00:45:50.058Z,970.4
2016-07-24T00:46:50.057Z,970.41
2016-07-24T00:47:50.057Z,970.38
2016-07-24T00:48:50.061Z,970.42
2016-07-24T00:49:50.067Z,970.41
2016-07-24T00:50:50.066Z,970.38
2016-07-24T00:51:50.065Z,970.43
2016-07-24T00:52:50.066Z,970.41
2016-07-24T00:53:50.066Z,970.41
2016-07-24T00:54:50.070Z,970.4
2016-07-24T00:55:50.070Z,970.38
2016-07-24T00:56:50.076Z,970.4
2016-07-24T00:57:50.073Z,970.41
2016-07-24T00:58:50.075Z,970.44
2016-07-24T00:59:50.075Z,970.42
2016-07-24T01:00:50.079Z,970.43
2016-07-24T01:01:50.079Z,970.39
2016-07-24T01:02:50.082Z,970.39
2016-07-24T01:03:50.085Z,970.4
2016-07-24T01:04:50.082Z,970.39
2016-07-24T01:05:50.087Z,970.39
2016-07-24T01:06:50.086Z,970.4
2016-07-24T01:07:50.087Z,970.38
2016-07-24T01:08:50.090Z,970.37
2016-07-24T01:09:50.091Z,970.37
2016-07-24T01:10:50.091Z,970.38
2016-07-24T01:11:50.095Z,970.35
2016-07-24T01:12:50.094Z,970.35
2016-07-24T01:13:50.095Z,970.37
2016-07-24T01:14:50.099Z,970.33
2016-07-24T01:15:50.099Z,970.35
2016-07-24T01:16:50.099Z,970.32
2016-07-24T01:17:50.106Z,970.29
2016-07-24T01:18:50.103Z,970.22
2016-07-24T01:19:50.103Z,970.24
2016-07-24T01:20:50.107Z,970.24
2016-07-24T01:21:50.107Z,970.23
2016-07-24T01:22:50.107Z,970.23
2016-07-24T01:23:50.111Z,970.18
2016-07-24T01:24:50.112Z,970.17
2016-07-24T01:25:50.112Z,970.17
2016-07-24T01:26:50.115Z,970.16
2016-07-24T01:27:50.115Z,970.16
2016-07-24T01:28:50.115Z,970.13
2016-07-24T01:29:50.119Z,970.18
2016-07-24T01:30:50.120Z,970.21
2016-07-24T01:31:50.119Z,970.18
2016-07-24T01:32:50.119Z,970.17
2016-07-24T01:33:50.123Z,970.19
2016-07-24T01:34:50.124Z,970.2
2016-07-24T01:35:50.123Z,970.21
2016-07-24T01:36:50.128Z,970.16
2016-07-24T01:37:50.127Z,970.15
2016-07-24T01:38:50.128Z,970.16
2016-07-24T01:39:50.132Z,970.17
2016-07-24T01:40:50.132Z,970.14
2016-07-24T01:41:50.132Z,970.11
2016-07-24T01:42:50.136Z,970.13
2016-07-24T01:43:50.137Z,970.1
2016-07-24T01:44:50.137Z,970.12
2016-07-24T01:45:50.136Z,970.09
2016-07-24T01:46:50.141Z,970.07
2016-07-24T01:47:50.140Z,970.1
2016-07-24T01:48:50.145Z,970.1
2016-07-24T01:49:50.144Z,970.08
2016-07-24T01:50:50.145Z,970.1
2016-07-24T01:51:50.149Z,970.05
2016-07-24T01:52:50.149Z,970.04
2016-07-24T01:53:50.149Z,970.05
2016-07-24T01:54:50.149Z,970.04
2016-07-24T01:55:50.153Z,970.03
2016-07-24T01:56:50.154Z,970.02
2016-07-24T01:57:50.153Z,970.01
2016-07-24T01:58:50.158Z,970.02
2016-07-24T01:59:50.157Z,970.03
2016-07-24T02:00:50.158Z,970.04
2016-07-24T02:01:50.157Z,970.02
2016-07-24T02:02:50.162Z,970.04
2016-07-24T02:03:50.161Z,970.03
2016-07-24T02:04:50.162Z,970
2016-07-24T02:05:50.165Z,970.01
2016-07-24T02:06:50.166Z,969.98
2016-07-24T02:07:50.169Z,969.97
2016-07-24T02:08:50.170Z,969.97
2016-07-24T02:09:50.169Z,969.95
2016-07-24T02:10:50.170Z,969.94
2016-07-24T02:11:50.169Z,969.93
2016-07-24T02:12:50.173Z,969.91
2016-07-24T02:13:50.174Z,969.93
2016-07-24T02:14:50.179Z,969.95
2016-07-24T02:15:50.177Z,969.96
2016-07-24T02:16:50.180Z,969.97
2016-07-24T02:17:50.177Z,969.98
2016-07-24T02:18:50.179Z,969.99
2016-07-24T02:19:50.184Z,970.02
2016-07-24T02:20:50.182Z,970.04
2016-07-24T02:21:50.183Z,970.01
2016-07-24T02:22:50.187Z,969.99
2016-07-24T02:23:50.186Z,970.02
2016-07-24T02:24:50.187Z,969.98
2016-07-24T02:25:50.190Z,970.02
2016-07-24T02:26:50.191Z,970.03
2016-07-24T02:27:50.190Z,970.02
2016-07-24T02:28:50.196Z,970.02
2016-07-24T02:29:50.194Z,970.04
2016-07-24T02:30:50.194Z,970.05
2016-07-24T02:31:50.194Z,970.04
2016-07-24T02:32:50.197Z,970.05
2016-07-24T02:33:50.199Z,970.08
2016-07-24T02:34:50.197Z,970.08
2016-07-24T02:35:50.202Z,970.07
2016-07-24T02:36:50.203Z,970.1
2016-07-24T02:37:50.203Z,970.1
2016-07-24T02:38:50.206Z,970.07
2016-07-24T02:39:50.207Z,970.09
2016-07-24T02:40:50.207Z,970.09
2016-07-24T02:41:50.206Z,970.08
2016-07-24T02:42:50.210Z,970.12
2016-07-24T02:43:50.262Z,970.12
2016-07-24T02:44:50.210Z,970.12
2016-07-24T02:45:50.215Z,970.11
2016-07-24T02:46:50.215Z,970.14
2016-07-24T02:47:50.216Z,970.14
2016-07-24T02:48:50.215Z,970.11
2016-07-24T02:49:50.219Z,970.14
2016-07-24T02:50:50.218Z,970.12
2016-07-24T02:51:50.219Z,970.16
2016-07-24T02:52:50.223Z,970.18
2016-07-24T02:53:50.223Z,970.15
2016-07-24T02:54:50.223Z,970.17
2016-07-24T02:55:50.223Z,970.2
2016-07-24T02:56:50.227Z,970.19
2016-07-24T02:57:50.227Z,970.17
2016-07-24T02:58:50.228Z,970.2
2016-07-24T02:59:50.227Z,970.16
2016-07-24T03:00:50.231Z,970.16
2016-07-24T03:01:50.231Z,970.19
2016-07-24T03:02:50.232Z,970.15
2016-07-24T03:03:50.235Z,970.18
2016-07-24T03:04:50.237Z,970.18
2016-07-24T03:05:50.235Z,970.2
2016-07-24T03:06:50.236Z,970.23
2016-07-24T03:07:50.239Z,970.26
2016-07-24T03:08:50.239Z,970.26
2016-07-24T03:09:50.240Z,970.27
2016-07-24T03:10:50.239Z,970.32
2016-07-24T03:11:50.244Z,970.28
2016-07-24T03:12:50.245Z,970.3
2016-07-24T03:13:50.245Z,970.29
2016-07-24T03:14:50.247Z,970.31
2016-07-24T03:15:50.247Z,970.32
2016-07-24T03:16:50.248Z,970.31
2016-07-24T03:17:50.249Z,970.33
2016-07-24T03:18:50.252Z,970.34
2016-07-24T03:19:50.251Z,970.31
2016-07-24T03:20:50.252Z,970.32
2016-07-24T03:21:50.253Z,970.33
2016-07-24T03:22:50.257Z,970.33
2016-07-24T03:23:50.255Z,970.32
2016-07-24T03:24:50.256Z,970.35
2016-07-24T03:25:50.256Z,970.36
2016-07-24T03:26:50.260Z,970.37
2016-07-24T03:27:50.259Z,970.37
2016-07-24T03:28:50.260Z,970.39
2016-07-24T03:29:50.260Z,970.41
2016-07-24T03:30:50.264Z,970.41
2016-07-24T03:31:50.264Z,970.45
2016-07-24T03:32:50.264Z,970.46
2016-07-24T03:33:50.273Z,970.45
2016-07-24T03:34:50.269Z,970.39
2016-07-24T03:35:50.269Z,970.46
2016-07-24T03:36:50.268Z,970.44
2016-07-24T03:37:50.273Z,970.43
2016-07-24T03:38:50.273Z,970.44
2016-07-24T03:39:50.272Z,970.42
2016-07-24T03:40:50.272Z,970.43
2016-07-24T03:41:50.277Z,970.41
2016-07-24T03:42:50.276Z,970.4
2016-07-24T03:43:50.277Z,970.39
2016-07-24T03:44:50.276Z,970.39
2016-07-24T03:45:50.281Z,970.42
2016-07-24T03:46:50.281Z,970.42
2016-07-24T03:47:50.280Z,970.39
2016-07-24T03:48:50.280Z,970.43
2016-07-24T03:49:50.284Z,970.41
2016-07-24T03:50:50.283Z,970.42
2016-07-24T03:51:50.284Z,970.4
2016-07-24T03:52:50.283Z,970.42
2016-07-24T03:53:50.285Z,970.41
2016-07-24T03:54:50.288Z,970.4
2016-07-24T03:55:50.289Z,970.37
2016-07-24T03:56:50.287Z,970.41
2016-07-24T03:57:50.289Z,970.41
2016-07-24T03:58:50.292Z,970.41
2016-07-24T03:59:50.292Z,970.43
2016-07-24T04:00:50.292Z,970.41
2016-07-24T04:01:50.293Z,970.4
2016-07-24T04:02:50.296Z,970.4
2016-07-24T04:03:50.297Z,970.41
2016-07-24T04:04:50.297Z,970.38
2016-07-24T04:05:50.297Z,970.39
2016-07-24T04:06:50.302Z,970.39
2016-07-24T04:07:50.301Z,970.38
2016-07-24T04:08:50.305Z,970.41
2016-07-24T04:09:50.301Z,970.39
2016-07-24T04:10:50.307Z,970.42
2016-07-24T04:11:50.305Z,970.43
2016-07-24T04:12:50.306Z,970.42
2016-07-24T04:13:50.309Z,970.44
2016-07-24T04:14:50.310Z,970.4
2016-07-24T04:15:50.309Z,970.4
2016-07-24T04:16:50.309Z,970.42
2016-07-24T04:17:50.313Z,970.39
2016-07-24T04:18:50.315Z,970.38
2016-07-24T04:19:50.313Z,970.41
2016-07-24T04:20:50.314Z,970.4
2016-07-24T04:21:50.318Z,970.4
2016-07-24T04:22:50.317Z,970.4
2016-07-24T04:23:50.318Z,970.41
2016-07-24T04:24:50.317Z,970.4
2016-07-24T04:25:50.321Z,970.42
2016-07-24T04:26:50.322Z,970.42
2016-07-24T04:27:50.322Z,970.42
2016-07-24T04:28:50.322Z,970.41
2016-07-24T04:29:50.325Z,970.43
2016-07-24T04:30:50.325Z,970.42
2016-07-24T04:31:50.326Z,970.41
2016-07-24T04:32:50.325Z,970.42
2016-07-24T04:33:50.326Z,970.41
2016-07-24T04:34:50.329Z,970.42
2016-07-24T04:35:50.330Z,970.44
2016-07-24T04:36:50.330Z,970.43
2016-07-24T04:37:50.330Z,970.38
2016-07-24T04:38:50.334Z,970.44
2016-07-24T04:39:50.335Z,970.4
2016-07-24T04:40:50.334Z,970.39
2016-07-24T04:41:50.338Z,970.41
2016-07-24T04:42:50.338Z,970.4
2016-07-24T04:43:50.390Z,970.41
2016-07-24T04:44:50.339Z,970.41
2016-07-24T04:45:50.343Z,970.45
2016-07-24T04:46:50.343Z,970.4
2016-07-24T04:47:50.342Z,970.44
2016-07-24T04:48:50.342Z,970.45
2016-07-24T04:49:50.347Z,970.4
2016-07-24T04:50:50.347Z,970.4
2016-07-24T04:51:50.347Z,970.37
2016-07-24T04:52:50.346Z,970.38
2016-07-24T04:53:50.351Z,970.35
2016-07-24T04:54:50.351Z,970.37
2016-07-24T04:55:50.351Z,970.35
2016-07-24T04:56:50.355Z,970.34
2016-07-24T04:57:50.355Z,970.31
2016-07-24T04:58:50.355Z,970.34
2016-07-24T04:59:50.355Z,970.34
2016-07-24T05:00:50.358Z,970.34
2016-07-24T05:01:50.359Z,970.36
2016-07-24T05:02:50.358Z,970.33
2016-07-24T05:03:50.359Z,970.34
2016-07-24T05:04:50.362Z,970.34
2016-07-24T05:05:50.362Z,970.35
2016-07-24T05:06:50.362Z,970.31
2016-07-24T05:07:50.362Z,970.32
2016-07-24T05:08:50.367Z,970.32
2016-07-24T05:09:50.366Z,970.37
2016-07-24T05:10:50.367Z,970.35
2016-07-24T05:11:50.371Z,970.35
2016-07-24T05:12:50.371Z,970.33
2016-07-24T05:13:50.371Z,970.34
2016-07-24T05:14:50.371Z,970.36
2016-07-24T05:15:50.374Z,970.34
2016-07-24T05:16:50.375Z,970.37
2016-07-24T05:17:50.375Z,970.36
2016-07-24T05:18:50.379Z,970.34
2016-07-24T05:19:50.379Z,970.33
2016-07-24T05:20:50.378Z,970.34
2016-07-24T05:21:50.379Z,970.35
2016-07-24T05:22:50.383Z,970.31
2016-07-24T05:23:50.383Z,970.32
2016-07-24T05:24:50.387Z,970.38
2016-07-24T05:25:50.387Z,970.34
2016-07-24T05:26:50.387Z,970.31
2016-07-24T05:27:50.387Z,970.32
2016-07-24T05:28:50.391Z,970.31
2016-07-24T05:29:50.392Z,970.36
2016-07-24T05:30:50.391Z,970.36
2016-07-24T05:31:50.395Z,970.34
2016-07-24T05:32:50.395Z,970.35
2016-07-24T05:33:50.396Z,970.38
2016-07-24T05:34:50.399Z,970.38
2016-07-24T05:35:50.400Z,970.4
2016-07-24T05:36:50.399Z,970.39
2016-07-24T05:37:50.404Z,970.39
2016-07-24T05:38:50.404Z,970.38
2016-07-24T05:39:50.408Z,970.39
2016-07-24T05:40:50.412Z,970.4
2016-07-24T05:41:50.408Z,970.38
2016-07-24T05:42:50.411Z,970.37
2016-07-24T05:43:50.411Z,970.42
2016-07-24T05:44:50.411Z,970.39
2016-07-24T05:45:50.416Z,970.36
2016-07-24T05:46:50.415Z,970.34
2016-07-24T05:47:50.420Z,970.37
2016-07-24T05:48:50.419Z,970.35
2016-07-24T05:49:50.424Z,970.33
2016-07-24T05:50:50.424Z,970.32
2016-07-24T05:51:50.424Z,970.33
2016-07-24T05:52:50.428Z,970.32
2016-07-24T05:53:50.427Z,970.34
2016-07-24T05:54:50.432Z,970.33
2016-07-24T05:55:50.432Z,970.34
2016-07-24T05:56:50.436Z,970.36
2016-07-24T05:57:50.437Z,970.35
2016-07-24T05:58:50.436Z,970.34
2016-07-24T05:59:50.441Z,970.33
2016-07-24T06:00:50.440Z,970.37
2016-07-24T06:01:50.444Z,970.32
2016-07-24T06:02:50.445Z,970.35
2016-07-24T06:03:50.449Z,970.33
2016-07-24T06:04:50.448Z,970.32
2016-07-24T06:05:50.453Z,970.33
2016-07-24T06:06:50.453Z,970.31
2016-07-24T06:07:50.457Z,970.34
2016-07-24T06:08:50.456Z,970.35
2016-07-24T06:09:50.457Z,970.35
2016-07-24T06:10:50.460Z,970.34
2016-07-24T06:11:50.461Z,970.34
2016-07-24T06:12:50.465Z,970.34
2016-07-24T06:13:50.466Z,970.38
2016-07-24T06:14:50.469Z,970.38
2016-07-24T06:15:50.469Z,970.4
2016-07-24T06:16:50.473Z,970.35
2016-07-24T06:17:50.473Z,970.4
2016-07-24T06:18:50.478Z,970.39
2016-07-24T06:19:50.478Z,970.42
2016-07-24T06:20:50.480Z,970.37
2016-07-24T06:21:50.482Z,970.36
2016-07-24T06:22:50.485Z,970.38
2016-07-24T06:23:50.485Z,970.4
2016-07-24T06:24:50.489Z,970.41
2016-07-24T06:25:50.490Z,970.39
2016-07-24T06:26:50.494Z,970.38
2016-07-24T06:27:50.494Z,970.41
2016-07-24T06:28:50.498Z,970.39
2016-07-24T06:29:50.502Z,970.43
2016-07-24T06:30:50.501Z,970.42
2016-07-24T06:31:50.505Z,970.41
2016-07-24T06:32:50.505Z,970.44
2016-07-24T06:33:50.510Z,970.44
2016-07-24T06:34:50.509Z,970.42
2016-07-24T06:35:50.513Z,970.43
2016-07-24T06:36:50.514Z,970.42
2016-07-24T06:37:50.517Z,970.4
2016-07-24T06:38:50.517Z,970.43
2016-07-24T06:39:50.521Z,970.42
2016-07-24T06:40:50.525Z,970.39
2016-07-24T06:41:50.528Z,970.39
2016-07-24T06:42:50.529Z,970.4
2016-07-24T06:43:50.630Z,970.42
2016-07-24T06:44:50.534Z,970.42
2016-07-24T06:45:50.533Z,970.44
2016-07-24T06:46:50.537Z,970.4
2016-07-24T06:47:50.541Z,970.42
2016-07-24T06:48:50.542Z,970.45
2016-07-24T06:49:50.546Z,970.43
2016-07-24T06:50:50.546Z,970.44
2016-07-24T06:51:50.551Z,970.47
2016-07-24T06:52:50.552Z,970.48
2016-07-24T06:53:50.554Z,970.5
2016-07-24T06:54:50.553Z,970.48
2016-07-24T06:55:50.558Z,970.48
2016-07-24T06:56:50.563Z,970.53
2016-07-24T06:57:50.562Z,970.51
2016-07-24T06:58:50.567Z,970.55
2016-07-24T06:59:50.567Z,970.57
2016-07-24T07:00:50.571Z,970.56
2016-07-24T07:01:50.570Z,970.58
2016-07-24T07:02:50.575Z,970.57
2016-07-24T07:03:50.574Z,970.56
2016-07-24T07:04:50.579Z,970.55
2016-07-24T07:05:50.583Z,970.61
2016-07-24T07:06:50.582Z,970.55
2016-07-24T07:07:50.587Z,970.59
2016-07-24T07:08:50.586Z,970.61
2016-07-24T07:09:50.591Z,970.59
2016-07-24T07:10:50.595Z,970.66
2016-07-24T07:11:50.595Z,970.61
2016-07-24T07:12:50.600Z,970.64
2016-07-24T07:13:50.599Z,970.61
2016-07-24T07:14:50.604Z,970.63
2016-07-24T07:15:50.607Z,970.61
2016-07-24T07:16:50.607Z,970.65
2016-07-24T07:17:50.612Z,970.63
2016-07-24T07:18:50.611Z,970.61
2016-07-24T07:19:50.617Z,970.64
2016-07-24T07:20:50.616Z,970.62
2016-07-24T07:21:50.619Z,970.62
2016-07-24T07:22:50.623Z,970.6
2016-07-24T07:23:50.623Z,970.6
2016-07-24T07:24:50.628Z,970.63
2016-07-24T07:25:50.632Z,970.63
2016-07-24T07:26:50.631Z,970.65
2016-07-24T07:27:50.636Z,970.59
2016-07-24T07:28:50.640Z,970.6
2016-07-24T07:29:50.641Z,970.64
2016-07-24T07:30:50.644Z,970.65
2016-07-24T07:31:50.644Z,970.66
2016-07-24T07:32:50.647Z,970.65
2016-07-24T07:33:50.647Z,970.66
2016-07-24T07:34:50.658Z,970.67
2016-07-24T07:35:50.656Z,970.65
2016-07-24T07:36:50.654Z,970.64
2016-07-24T07:37:50.660Z,970.66
2016-07-24T07:38:50.659Z,970.66
2016-07-24T07:39:50.663Z,970.63
2016-07-24T07:40:50.663Z,970.66
2016-07-24T07:41:50.667Z,970.66
2016-07-24T07:42:50.667Z,970.67
2016-07-24T07:43:50.671Z,970.69
2016-07-24T07:44:50.671Z,970.66
2016-07-24T07:45:50.675Z,970.67
2016-07-24T07:46:50.681Z,970.65
2016-07-24T07:47:50.680Z,970.65
2016-07-24T07:48:50.683Z,970.69
2016-07-24T07:49:50.684Z,970.65
2016-07-24T07:50:50.687Z,970.69
2016-07-24T07:51:50.691Z,970.66
2016-07-24T07:52:50.692Z,970.68
2016-07-24T07:53:50.696Z,970.66
2016-07-24T07:54:50.696Z,970.68
2016-07-24T07:55:50.700Z,970.64
2016-07-24T07:56:50.700Z,970.67
2016-07-24T07:57:50.704Z,970.66
2016-07-24T07:58:50.708Z,970.67
2016-07-24T07:59:50.708Z,970.7
2016-07-24T08:00:50.713Z,970.66
2016-07-24T08:01:50.712Z,970.62
2016-07-24T08:02:50.716Z,970.65
2016-07-24T08:03:50.716Z,970.62
2016-07-24T08:04:50.720Z,970.62
2016-07-24T08:05:50.719Z,970.65
2016-07-24T08:06:50.724Z,970.65
2016-07-24T08:07:50.729Z,970.64
2016-07-24T08:08:50.728Z,970.66
2016-07-24T08:09:50.733Z,970.68
2016-07-24T08:10:50.732Z,970.71
2016-07-24T08:11:50.737Z,970.67
2016-07-24T08:12:50.740Z,970.67
2016-07-24T08:13:50.741Z,970.69
2016-07-24T08:14:50.744Z,970.7
2016-07-24T08:15:50.746Z,970.68
2016-07-24T08:16:50.748Z,970.71
2016-07-24T08:17:50.749Z,970.64
2016-07-24T08:18:50.754Z,970.66
2016-07-24T08:19:50.757Z,970.68
2016-07-24T08:20:50.759Z,970.66
2016-07-24T08:21:50.761Z,970.61
2016-07-24T08:22:50.761Z,970.68
2016-07-24T08:23:50.765Z,970.66
2016-07-24T08:24:50.764Z,970.64
2016-07-24T08:25:50.769Z,970.63
2016-07-24T08:26:50.773Z,970.65
2016-07-24T08:27:50.773Z,970.67
2016-07-24T08:28:50.773Z,970.64
2016-07-24T08:29:50.777Z,970.65
2016-07-24T08:30:50.781Z,970.62
2016-07-24T08:31:50.781Z,970.58
2016-07-24T08:32:50.786Z,970.58
2016-07-24T08:33:50.786Z,970.59
2016-07-24T08:34:50.790Z,970.56
2016-07-24T08:35:50.790Z,970.53
2016-07-24T08:36:50.793Z,970.52
2016-07-24T08:37:50.797Z,970.49
2016-07-24T08:38:50.798Z,970.57
2016-07-24T08:39:50.801Z,970.53
2016-07-24T08:40:50.801Z,970.5
2016-07-24T08:41:50.805Z,970.5
2016-07-24T08:42:50.804Z,970.45
2016-07-24T08:43:50.962Z,970.46
2016-07-24T08:44:50.813Z,970.49
2016-07-24T08:45:50.813Z,970.46
2016-07-24T08:46:50.818Z,970.44
2016-07-24T08:47:50.822Z,970.45
2016-07-24T08:48:50.822Z,970.4
2016-07-24T08:49:50.821Z,970.44
2016-07-24T08:50:50.826Z,970.44
2016-07-24T08:51:50.829Z,970.44
2016-07-24T08:52:50.830Z,970.4
2016-07-24T08:53:50.833Z,970.41
2016-07-24T08:54:50.833Z,970.41
2016-07-24T08:55:50.838Z,970.41
2016-07-24T08:56:50.841Z,970.44
2016-07-24T08:57:50.842Z,970.43
2016-07-24T08:58:50.846Z,970.43
2016-07-24T08:59:50.849Z,970.39
2016-07-24T09:00:50.850Z,970.38
2016-07-24T09:01:50.854Z,970.41
2016-07-24T09:02:50.853Z,970.36
2016-07-24T09:03:50.858Z,970.39
2016-07-24T09:04:50.858Z,970.36
2016-07-24T09:05:50.862Z,970.36
2016-07-24T09:06:50.868Z,970.34
2016-07-24T09:07:50.865Z,970.36
2016-07-24T09:08:50.869Z,970.31
2016-07-24T09:09:50.870Z,970.32
2016-07-24T09:10:50.874Z,970.27
2016-07-24T09:11:50.874Z,970.29
2016-07-24T09:12:50.880Z,970.28
2016-07-24T09:13:50.882Z,970.28
2016-07-24T09:14:50.882Z,970.25
2016-07-24T09:15:50.886Z,970.25
2016-07-24T09:16:50.887Z,970.25
2016-07-24T09:17:50.891Z,970.26
2016-07-24T09:18:50.894Z,970.3
2016-07-24T09:19:50.894Z,970.28
2016-07-24T09:20:50.897Z,970.27
2016-07-24T09:21:50.902Z,970.31
2016-07-24T09:22:50.903Z,970.28
2016-07-24T09:23:50.907Z,970.28
2016-07-24T09:24:50.907Z,970.27
2016-07-24T09:25:50.914Z,970.25
2016-07-24T09:26:50.911Z,970.3
2016-07-24T09:27:50.914Z,970.28
2016-07-24T09:28:50.919Z,970.28
2016-07-24T09:29:50.919Z,970.29
2016-07-24T09:30:50.923Z,970.27
2016-07-24T09:31:50.926Z,970.25
2016-07-24T09:32:50.927Z,970.24
2016-07-24T09:33:50.932Z,970.26
2016-07-24T09:34:50.930Z,970.26
2016-07-24T09:35:50.934Z,970.27
2016-07-24T09:36:50.938Z,970.27
2016-07-24T09:37:50.939Z,970.26
2016-07-24T09:38:50.942Z,970.26
2016-07-24T09:39:50.946Z,970.21
2016-07-24T09:40:50.946Z,970.23
2016-07-24T09:41:50.951Z,970.24
2016-07-24T09:42:50.951Z,970.22
2016-07-24T09:43:50.955Z,970.2
2016-07-24T09:44:50.959Z,970.19
2016-07-24T09:45:50.959Z,970.21
2016-07-24T09:46:50.963Z,970.2
2016-07-24T09:47:50.966Z,970.18
2016-07-24T09:48:50.967Z,970.19
2016-07-24T09:49:50.971Z,970.18
2016-07-24T09:50:50.971Z,970.18
2016-07-24T09:51:50.976Z,970.13
2016-07-24T09:52:50.979Z,970.13
2016-07-24T09:53:50.979Z,970.19
2016-07-24T09:54:50.983Z,970.13
2016-07-24T09:55:50.988Z,970.11
2016-07-24T09:56:50.988Z,970.12
2016-07-24T09:57:50.992Z,970.14
2016-07-24T09:58:50.995Z,970.11
2016-07-24T09:59:50.996Z,970.13
2016-07-24T10:00:50.998Z,970.11
2016-07-24T10:01:51.000Z,970.11
2016-07-24T10:02:51.004Z,970.1
2016-07-24T10:03:51.008Z,970.09
2016-07-24T10:04:51.008Z,970.09
2016-07-24T10:05:51.011Z,970.08
2016-07-24T10:06:51.016Z,970.05
2016-07-24T10:07:51.015Z,970.06
2016-07-24T10:08:51.020Z,970.07
2016-07-24T10:09:51.023Z,970.07
2016-07-24T10:10:51.024Z,970.01
2016-07-24T10:11:51.028Z,970.04
2016-07-24T10:12:51.032Z,970.05
2016-07-24T10:13:51.031Z,970.04
2016-07-24T10:14:51.036Z,970.04
2016-07-24T10:15:51.036Z,970.03
2016-07-24T10:16:51.041Z,970.03
2016-07-24T10:17:51.044Z,970.02
2016-07-24T10:18:51.044Z,970.01
2016-07-24T10:19:51.049Z,970
2016-07-24T10:20:51.053Z,969.98
2016-07-24T10:21:51.052Z,970
2016-07-24T10:22:51.057Z,970.03
2016-07-24T10:23:51.060Z,970.01
2016-07-24T10:24:51.060Z,969.98
2016-07-24T10:25:51.065Z,969.97
2016-07-24T10:26:51.068Z,970.02
2016-07-24T10:27:51.072Z,969.98
2016-07-24T10:28:51.072Z,970.02
2016-07-24T10:29:51.076Z,969.99
2016-07-24T10:30:51.076Z,970.02
2016-07-24T10:31:51.081Z,969.98
2016-07-24T10:32:51.085Z,970.03
2016-07-24T10:33:51.089Z,970
2016-07-24T10:34:51.090Z,969.98
2016-07-24T10:35:51.093Z,969.97
2016-07-24T10:36:51.097Z,969.99
2016-07-24T10:37:51.097Z,970
2016-07-24T10:38:51.101Z,969.98
2016-07-24T10:39:51.106Z,969.94
2016-07-24T10:40:51.105Z,969.97
2016-07-24T10:41:51.110Z,969.99
2016-07-24T10:42:51.117Z,969.96
2016-07-24T10:43:51.214Z,969.94
2016-07-24T10:44:51.117Z,969.93
2016-07-24T10:45:51.122Z,969.95
2016-07-24T10:46:51.121Z,969.93
2016-07-24T10:47:51.125Z,969.93
2016-07-24T10:48:51.129Z,969.93
2016-07-24T10:49:51.134Z,969.92
2016-07-24T10:50:51.133Z,969.89
2016-07-24T10:51:51.138Z,969.91
2016-07-24T10:52:51.142Z,969.89
2016-07-24T10:53:51.142Z,969.92
2016-07-24T10:54:51.146Z,969.93
2016-07-24T10:55:51.151Z,969.88
2016-07-24T10:56:51.149Z,969.89
2016-07-24T10:57:51.154Z,969.88
2016-07-24T10:58:51.158Z,969.86
2016-07-24T10:59:51.169Z,969.9
2016-07-24T11:00:51.162Z,969.88
2016-07-24T11:01:51.166Z,969.85
2016-07-24T11:02:51.166Z,969.86
2016-07-24T11:03:51.171Z,969.83
2016-07-24T11:04:51.174Z,969.83
2016-07-24T11:05:51.175Z,969.83
2016-07-24T11:06:51.178Z,969.82
2016-07-24T11:07:51.182Z,969.83
2016-07-24T11:08:51.183Z,969.83
2016-07-24T11:09:51.186Z,969.81
2016-07-24T11:10:51.191Z,969.81
2016-07-24T11:11:51.195Z,969.78
2016-07-24T11:12:51.195Z,969.82
2016-07-24T11:13:51.198Z,969.78
2016-07-24T11:14:51.202Z,969.78
2016-07-24T11:15:51.202Z,969.81
2016-07-24T11:16:51.211Z,969.81
2016-07-24T11:17:51.210Z,969.81
2016-07-24T11:18:51.215Z,969.8
2016-07-24T11:19:51.215Z,969.84
2016-07-24T11:20:51.219Z,969.83
2016-07-24T11:21:51.223Z,969.81
2016-07-24T11:22:51.223Z,969.84
2016-07-24T11:23:51.227Z,969.81
2016-07-24T11:24:51.231Z,969.81
2016-07-24T11:25:51.230Z,969.81
2016-07-24T11:26:51.234Z,969.78
2016-07-24T11:27:51.238Z,969.78
2016-07-24T11:28:51.242Z,969.8
2016-07-24T11:29:51.243Z,969.84
2016-07-24T11:30:51.245Z,969.82
2016-07-24T11:31:51.250Z,969.82
2016-07-24T11:32:51.250Z,969.83
2016-07-24T11:33:51.253Z,969.85
2016-07-24T11:34:51.258Z,969.85
2016-07-24T11:35:51.257Z,969.84
2016-07-24T11:36:51.262Z,969.85
2016-07-24T11:37:51.265Z,969.81
2016-07-24T11:38:51.269Z,969.82
2016-07-24T11:39:51.270Z,969.8
2016-07-24T11:40:51.273Z,969.82
2016-07-24T11:41:51.283Z,969.8
2016-07-24T11:42:51.287Z,969.76
2016-07-24T11:43:51.282Z,969.77
2016-07-24T11:44:51.286Z,969.78
2016-07-24T11:45:51.286Z,969.79
2016-07-24T11:46:51.290Z,969.8
2016-07-24T11:47:51.294Z,969.81
2016-07-24T11:48:51.298Z,969.78
2016-07-24T11:49:51.297Z,969.78
2016-07-24T11:50:51.302Z,969.76
2016-07-24T11:51:51.307Z,969.75
2016-07-24T11:52:51.310Z,969.77
2016-07-24T11:53:51.309Z,969.81
2016-07-24T11:54:51.314Z,969.77
2016-07-24T11:55:51.318Z,969.73
2016-07-24T11:56:51.319Z,969.73
2016-07-24T11:57:51.322Z,969.7
2016-07-24T11:58:51.326Z,969.67
2016-07-24T11:59:51.326Z,969.68
2016-07-24T12:00:51.330Z,969.72
2016-07-24T12:01:51.333Z,969.66
2016-07-24T12:02:51.338Z,969.67
2016-07-24T12:03:51.338Z,969.66
2016-07-24T12:04:51.342Z,969.65
2016-07-24T12:05:51.346Z,969.67
2016-07-24T12:06:51.350Z,969.66
2016-07-24T12:07:51.350Z,969.63
2016-07-24T12:08:51.354Z,969.62
2016-07-24T12:09:51.357Z,969.62
2016-07-24T12:10:51.361Z,969.59
2016-07-24T12:11:51.361Z,969.57
2016-07-24T12:12:51.366Z,969.64
2016-07-24T12:13:51.370Z,969.58
2016-07-24T12:14:51.375Z,969.62
2016-07-24T12:15:51.374Z,969.64
2016-07-24T12:16:51.379Z,969.61
2016-07-24T12:17:51.382Z,969.58
2016-07-24T12:18:51.382Z,969.58
2016-07-24T12:19:51.387Z,969.59
2016-07-24T12:20:51.390Z,969.61
2016-07-24T12:21:51.394Z,969.58
2016-07-24T12:22:51.393Z,969.57
2016-07-24T12:23:51.398Z,969.58
2016-07-24T12:24:51.402Z,969.53
2016-07-24T12:25:51.407Z,969.53
2016-07-24T12:26:51.405Z,969.52
2016-07-24T12:27:51.411Z,969.49
2016-07-24T12:28:51.414Z,969.5
2016-07-24T12:29:51.414Z,969.51
2016-07-24T12:30:51.418Z,969.52
2016-07-24T12:31:51.423Z,969.52